createdAt,value
2022-10-17T00:02:58.385Z,5.70
2022-10-17T00:06:05.985Z,4.60
2022-10-17T00:09:09.651Z,4.17
2022-10-17T00:12:13.934Z,4.37
2022-10-17T00:15:17.998Z,4.83
2022-10-17T00:18:21.161Z,4.10
2022-10-17T00:21:25.449Z,4.77
2022-10-17T00:24:28.154Z,5.43
2022-10-17T00:27:32.577Z,4.43
2022-10-17T00:30:35.552Z,4.57
2022-10-17T00:33:39.217Z,5.27
2022-10-17T00:36:41.986Z,3.80
2022-10-17T00:39:45.014Z,3.67
2022-10-17T00:42:51.235Z,4.30
2022-10-17T00:45:54.311Z,4.40
2022-10-17T00:48:59.756Z,4.13
2022-10-17T00:52:05.855Z,4.60
2022-10-17T00:55:15.128Z,4.73
2022-10-17T00:58:20.118Z,4.77
2022-10-17T01:01:23.019Z,4.27
2022-10-17T01:04:25.811Z,3.80
2022-10-17T01:07:33.171Z,3.80
2022-10-17T01:10:50.540Z,4.43
2022-10-17T01:13:59.692Z,4.40
2022-10-17T01:17:12.853Z,3.43
2022-10-17T01:20:48.959Z,4.67
2022-10-17T01:24:25.817Z,4.47
2022-10-17T01:27:50.338Z,4.10
2022-10-17T01:31:00.671Z,3.10
2022-10-17T01:34:09.946Z,3.60
2022-10-17T01:37:19.369Z,3.10
2022-10-17T01:40:28.307Z,2.70
2022-10-17T01:43:39.010Z,3.63
2022-10-17T01:46:48.418Z,3.90
2022-10-17T01:49:55.137Z,4.27
2022-10-17T01:53:03.719Z,4.07
2022-10-17T01:56:09.272Z,3.83
2022-10-17T01:59:15.642Z,3.63
2022-10-17T02:02:22.338Z,3.47
2022-10-17T02:05:28.849Z,4.10
2022-10-17T02:08:43.218Z,3.60
2022-10-17T02:11:55.202Z,3.77
2022-10-17T02:15:11.194Z,3.60
2022-10-17T02:18:31.494Z,3.20
2022-10-17T02:21:46.236Z,3.17
2022-10-17T02:24:53.760Z,4.10
2022-10-17T02:28:03.324Z,3.03
2022-10-17T02:31:13.492Z,3.20
2022-10-17T02:34:21.261Z,3.50
2022-10-17T02:37:29.162Z,3.50
2022-10-17T02:40:33.273Z,2.90
2022-10-17T02:43:38.412Z,3.17
2022-10-17T02:46:43.835Z,3.07
2022-10-17T02:49:52.471Z,2.53
2022-10-17T02:53:00.560Z,2.43
2022-10-17T02:56:10.975Z,3.03
2022-10-17T02:59:16.831Z,3.10
2022-10-17T03:02:19.976Z,2.80
2022-10-17T03:05:27.180Z,3.73
2022-10-17T03:08:30.000Z,3.70
2022-10-17T03:11:33.177Z,3.40
2022-10-17T03:14:36.061Z,3.50
2022-10-17T03:17:39.298Z,3.97
2022-10-17T03:20:43.504Z,3.10
2022-10-17T03:23:46.498Z,3.40
2022-10-17T03:26:49.243Z,3.43
2022-10-17T03:29:52.351Z,3.77
2022-10-17T03:32:55.318Z,3.80
2022-10-17T03:35:59.403Z,4.07
2022-10-17T03:39:02.128Z,3.77
2022-10-17T03:42:05.374Z,4.03
2022-10-17T03:45:08.793Z,4.13
2022-10-17T03:48:11.870Z,3.90
2022-10-17T03:51:16.798Z,3.77
2022-10-17T03:54:19.567Z,3.70
2022-10-17T03:57:22.514Z,3.43
2022-10-17T04:00:25.302Z,3.77
2022-10-17T04:03:28.054Z,3.90
2022-10-17T04:06:32.286Z,3.60
2022-10-17T04:09:35.390Z,3.70
2022-10-17T04:12:38.446Z,4.00
2022-10-17T04:15:41.142Z,3.80
2022-10-17T04:18:44.941Z,2.43
2022-10-17T04:21:49.246Z,3.70
2022-10-17T04:24:52.272Z,4.17
2022-10-17T04:27:55.258Z,3.80
2022-10-17T04:30:58.880Z,3.73
2022-10-17T04:34:02.162Z,3.60
2022-10-17T04:37:06.468Z,3.00
2022-10-17T04:40:10.547Z,3.50
2022-10-17T04:43:13.486Z,3.83
2022-10-17T04:46:16.628Z,3.43
2022-10-17T04:49:19.566Z,4.63
2022-10-17T04:52:25.398Z,4.37
2022-10-17T04:55:28.175Z,3.93
2022-10-17T04:58:31.166Z,4.03
2022-10-17T05:01:34.108Z,3.70
2022-10-17T05:04:37.000Z,3.30
2022-10-17T05:07:42.466Z,3.87
2022-10-17T05:10:47.367Z,3.50
2022-10-17T05:13:54.583Z,3.57
2022-10-17T05:16:57.422Z,4.37
2022-10-17T05:20:00.202Z,3.43
2022-10-17T05:23:05.063Z,3.67
2022-10-17T05:26:07.841Z,3.30
2022-10-17T05:29:11.208Z,3.80
2022-10-17T05:32:14.001Z,3.80
2022-10-17T05:35:17.095Z,4.63
2022-10-17T05:38:21.198Z,3.63
2022-10-17T05:41:24.319Z,4.50
2022-10-17T05:44:27.361Z,4.00
2022-10-17T05:47:30.285Z,4.00
2022-10-17T05:50:33.680Z,4.50
2022-10-17T05:53:40.410Z,4.63
2022-10-17T05:56:43.368Z,4.30
2022-10-17T05:59:46.075Z,4.20
2022-10-17T06:02:49.544Z,4.47
2022-10-17T06:05:52.457Z,4.97
2022-10-17T06:08:56.802Z,5.00
2022-10-17T06:11:59.593Z,4.87
2022-10-17T06:15:02.620Z,4.57
2022-10-17T06:18:05.881Z,3.80
2022-10-17T06:21:11.130Z,4.17
2022-10-17T06:24:15.546Z,4.17
2022-10-17T06:27:18.275Z,5.00
2022-10-17T06:30:21.014Z,4.57
2022-10-17T06:33:23.990Z,3.67
2022-10-17T06:36:27.123Z,4.07
2022-10-17T06:39:34.204Z,4.77
2022-10-17T06:42:36.944Z,4.90
2022-10-17T06:45:40.631Z,4.03
2022-10-17T06:48:43.666Z,6.17
2022-10-17T06:51:46.850Z,6.37
2022-10-17T06:54:52.027Z,4.23
2022-10-17T06:57:58.136Z,8.53
2022-10-17T07:01:02.005Z,4.03
2022-10-17T07:04:05.289Z,3.67
2022-10-17T07:07:08.229Z,3.53
2022-10-17T07:10:12.782Z,3.43
2022-10-17T07:13:16.070Z,4.13
2022-10-17T07:16:18.864Z,4.00
2022-10-17T07:19:21.907Z,3.90
2022-10-17T07:22:24.943Z,3.50
2022-10-17T07:25:29.832Z,4.60
2022-10-17T07:28:32.782Z,4.03
2022-10-17T07:31:35.609Z,4.20
2022-10-17T07:34:38.361Z,4.07
2022-10-17T07:37:41.854Z,3.20
2022-10-17T07:40:46.233Z,4.40
2022-10-17T07:43:49.075Z,4.03
2022-10-17T07:46:51.999Z,3.60
2022-10-17T07:49:54.732Z,3.40
2022-10-17T07:52:57.767Z,3.70
2022-10-17T07:56:05.607Z,3.80
2022-10-17T07:59:09.549Z,3.00
2022-10-17T08:02:21.887Z,3.40
2022-10-17T08:05:24.610Z,3.63
2022-10-17T08:08:28.277Z,3.53
2022-10-17T08:11:32.893Z,3.20
2022-10-17T08:14:35.799Z,2.67
2022-10-17T08:17:39.484Z,2.70
2022-10-17T08:20:42.562Z,3.03
2022-10-17T08:23:45.592Z,3.00
2022-10-17T08:26:51.880Z,2.33
2022-10-17T08:29:55.122Z,2.60
2022-10-17T08:32:58.058Z,2.67
2022-10-17T08:36:01.984Z,2.40
2022-10-17T08:39:05.487Z,2.17
2022-10-17T08:42:28.341Z,2.43
2022-10-17T08:45:34.983Z,3.20
2022-10-17T08:48:44.087Z,2.80
2022-10-17T08:51:53.958Z,2.70
2022-10-17T08:54:57.064Z,3.10
2022-10-17T08:58:01.964Z,2.87
2022-10-17T09:01:13.170Z,2.60
2022-10-17T09:04:52.073Z,2.83
2022-10-17T09:08:06.922Z,2.87
2022-10-17T09:11:22.101Z,2.37
2022-10-17T09:14:44.520Z,2.70
2022-10-17T09:17:53.922Z,2.00
2022-10-17T09:21:00.404Z,2.80
2022-10-17T09:24:15.790Z,2.47
2022-10-17T09:27:24.411Z,2.27
2022-10-17T09:30:51.277Z,2.50
2022-10-17T09:33:57.114Z,2.73
2022-10-17T09:37:01.920Z,2.40
2022-10-17T09:40:08.945Z,1.90
2022-10-17T09:43:14.669Z,1.83
2022-10-17T09:46:25.941Z,1.77
2022-10-17T09:49:33.585Z,1.53
2022-10-17T09:52:40.714Z,2.10
2022-10-17T09:55:47.815Z,1.47
2022-10-17T09:58:52.869Z,1.50
2022-10-17T10:02:09.597Z,1.83
2022-10-17T10:05:17.720Z,1.70
2022-10-17T10:08:21.159Z,2.00
2022-10-17T10:11:27.442Z,1.93
2022-10-17T10:14:33.591Z,1.50
2022-10-17T10:17:41.666Z,1.27
2022-10-17T10:20:47.285Z,1.60
2022-10-17T10:24:06.762Z,1.53
2022-10-17T10:27:15.877Z,1.63
2022-10-17T10:30:20.386Z,1.90
2022-10-17T10:33:28.537Z,1.87
2022-10-17T10:36:55.203Z,1.70
2022-10-17T10:39:59.657Z,1.50
2022-10-17T10:43:05.548Z,1.50
2022-10-17T10:46:19.426Z,1.50
2022-10-17T10:49:34.163Z,1.40
2022-10-17T10:52:44.847Z,1.40
2022-10-17T10:55:51.491Z,1.60
2022-10-17T10:58:59.651Z,1.13
2022-10-17T11:02:11.788Z,1.70
2022-10-17T11:05:23.206Z,1.60
2022-10-17T11:08:32.711Z,1.63
2022-10-17T11:11:40.574Z,1.20
2022-10-17T11:14:48.044Z,1.33
2022-10-17T11:17:58.536Z,1.43
2022-10-17T11:21:11.525Z,1.60
2022-10-17T11:24:22.786Z,1.70
2022-10-17T11:27:26.642Z,1.40
2022-10-17T11:30:50.367Z,1.70
2022-10-17T11:33:58.620Z,1.50
2022-10-17T11:37:11.002Z,1.50
2022-10-17T11:40:23.592Z,1.33
2022-10-17T11:43:33.823Z,1.30
2022-10-17T11:46:38.817Z,1.90
2022-10-17T11:49:49.943Z,1.80
2022-10-17T11:53:02.337Z,1.90
2022-10-17T11:56:05.719Z,1.70
2022-10-17T11:59:30.892Z,1.57
2022-10-17T12:02:43.456Z,1.70
2022-10-17T12:05:54.201Z,1.50
2022-10-17T12:09:06.171Z,1.40
2022-10-17T12:12:09.507Z,1.40
2022-10-17T12:15:32.191Z,1.57
2022-10-17T12:18:34.986Z,1.33
2022-10-17T12:21:56.331Z,1.70
2022-10-17T12:25:02.846Z,1.70
2022-10-17T12:28:14.495Z,1.50
2022-10-17T12:31:29.669Z,1.70
2022-10-17T12:34:35.452Z,1.47
2022-10-17T12:38:01.995Z,1.50
2022-10-17T12:41:07.757Z,1.37
2022-10-17T12:44:38.021Z,1.10
2022-10-17T12:47:41.017Z,1.30
2022-10-17T12:51:34.031Z,1.37
2022-10-17T12:54:28.146Z,1.27
2022-10-17T12:57:39.589Z,1.20
2022-10-17T13:00:59.458Z,1.20
2022-10-17T13:04:11.675Z,1.20
2022-10-17T13:07:19.852Z,1.23
2022-10-17T13:13:39.188Z,1.20
2022-10-17T13:16:59.352Z,1.27
2022-10-17T13:20:02.778Z,1.33
2022-10-17T13:23:05.953Z,1.30
2022-10-17T13:26:15.410Z,1.40
2022-10-17T13:29:21.880Z,1.63
2022-10-17T13:32:25.355Z,1.50
2022-10-17T13:35:55.494Z,1.50
2022-10-17T13:38:54.049Z,1.30
2022-10-17T13:41:59.069Z,1.60
2022-10-17T13:45:03.776Z,1.30
2022-10-17T13:48:10.089Z,1.40
2022-10-17T13:51:14.045Z,1.30
2022-10-17T13:54:36.508Z,1.60
2022-10-17T13:57:39.213Z,1.60
2022-10-17T14:00:43.752Z,1.30
2022-10-17T14:03:48.979Z,1.50
2022-10-17T14:06:52.712Z,1.33
2022-10-17T14:09:55.627Z,1.47
2022-10-17T14:12:59.100Z,1.40
2022-10-17T14:16:05.027Z,1.50
2022-10-17T14:19:17.544Z,1.60
2022-10-17T14:22:27.780Z,1.90
2022-10-17T14:25:32.387Z,1.90
2022-10-17T14:28:36.057Z,1.73
2022-10-17T14:31:40.274Z,1.47
2022-10-17T14:34:43.062Z,1.60
2022-10-17T14:37:48.708Z,1.53
2022-10-17T14:40:57.531Z,1.97
2022-10-17T14:44:09.759Z,1.63
2022-10-17T14:47:42.079Z,1.80
2022-10-17T14:51:08.669Z,1.80
2022-10-17T14:54:29.138Z,1.50
2022-10-17T14:57:44.487Z,1.70
2022-10-17T15:00:47.157Z,2.13
2022-10-17T15:03:51.488Z,2.10
2022-10-17T15:06:55.893Z,1.83
2022-10-17T15:09:58.750Z,2.07
2022-10-17T15:13:26.572Z,2.20
2022-10-17T15:16:26.906Z,1.97
2022-10-17T15:19:30.987Z,2.60
2022-10-17T15:22:36.664Z,2.63
2022-10-17T15:25:40.559Z,2.30
2022-10-17T15:28:44.032Z,2.40
2022-10-17T15:31:46.890Z,6.30
2022-10-17T15:34:51.106Z,3.77
2022-10-17T15:37:54.069Z,3.10
2022-10-17T15:40:56.875Z,2.63
2022-10-17T15:44:01.072Z,2.10
2022-10-17T15:47:04.043Z,19.50
2022-10-17T15:50:13.061Z,3.03
2022-10-17T15:53:15.867Z,2.47
2022-10-17T15:56:23.228Z,2.60
2022-10-17T15:59:31.465Z,2.13
2022-10-17T16:02:34.318Z,2.57
2022-10-17T16:05:38.418Z,2.37
2022-10-17T16:08:41.578Z,8.03
2022-10-17T16:11:45.210Z,5.13
2022-10-17T16:14:47.941Z,5.40
2022-10-17T16:17:51.263Z,5.03
2022-10-17T16:20:55.532Z,5.47
2022-10-17T16:23:58.722Z,4.60
2022-10-17T16:27:01.484Z,3.87
2022-10-17T16:30:05.391Z,3.80
2022-10-17T16:33:08.092Z,3.87
2022-10-17T16:36:12.211Z,3.83
2022-10-17T16:39:14.992Z,4.40
2022-10-17T16:42:18.118Z,3.90
2022-10-17T16:45:22.593Z,3.30
2022-10-17T16:48:29.617Z,3.40
2022-10-17T16:51:35.914Z,3.63
2022-10-17T16:54:38.693Z,8.20
2022-10-17T17:00:47.757Z,9.10
2022-10-17T17:03:51.538Z,10.97
2022-10-17T17:06:55.703Z,3.77
2022-10-17T17:09:58.490Z,3.70
2022-10-17T17:13:02.090Z,4.50
2022-10-17T17:16:07.502Z,4.40
2022-10-17T17:19:14.765Z,3.90
2022-10-17T17:22:18.853Z,4.53
2022-10-17T17:25:22.968Z,4.00
2022-10-17T17:28:28.577Z,3.30
2022-10-17T17:31:33.888Z,3.03
2022-10-17T17:34:37.499Z,6.47
2022-10-17T17:37:41.832Z,7.47
2022-10-17T17:40:50.750Z,12.13
2022-10-17T17:43:54.787Z,4.00
2022-10-17T17:46:57.691Z,3.73
2022-10-17T17:50:00.700Z,22.37
2022-10-17T17:53:05.434Z,3.90
2022-10-17T17:56:10.495Z,3.80
2022-10-17T17:59:14.470Z,3.57
2022-10-17T18:02:17.747Z,3.80
2022-10-17T18:05:21.258Z,4.10
2022-10-17T18:08:25.527Z,4.40
2022-10-17T18:11:29.317Z,6.00
2022-10-17T18:14:32.299Z,7.13
2022-10-17T18:17:35.476Z,6.83
2022-10-17T18:20:41.672Z,37.50
2022-10-17T18:23:47.800Z,5.50
2022-10-17T18:26:51.094Z,6.43
2022-10-17T18:29:53.926Z,4.90
2022-10-17T18:32:56.769Z,5.70
2022-10-17T18:36:06.991Z,10.27
2022-10-17T18:39:11.413Z,9.30
2022-10-17T18:42:14.263Z,6.57
2022-10-17T18:45:17.482Z,6.33
2022-10-17T18:48:20.225Z,5.70
2022-10-17T18:51:25.239Z,4.90
2022-10-17T18:54:32.429Z,5.40
2022-10-17T18:57:35.554Z,5.20
2022-10-17T19:00:38.570Z,5.03
2022-10-17T19:03:41.318Z,5.30
2022-10-17T19:06:44.365Z,5.10
2022-10-17T19:09:49.136Z,5.13
2022-10-17T19:12:51.908Z,4.57
2022-10-17T19:15:54.641Z,4.40
2022-10-17T19:19:00.943Z,4.60
2022-10-17T19:22:04.429Z,5.17
2022-10-17T19:25:09.405Z,4.23
2022-10-17T19:28:12.404Z,5.50
2022-10-17T19:31:17.944Z,25.97
2022-10-17T19:34:21.510Z,13.43
2022-10-17T19:37:24.852Z,8.53
2022-10-17T19:40:29.101Z,6.63
2022-10-17T19:43:31.875Z,5.13
2022-10-17T19:46:35.709Z,4.70
2022-10-17T19:49:38.850Z,4.97
2022-10-17T19:52:41.941Z,4.83
2022-10-17T19:55:46.779Z,5.60
2022-10-17T19:58:51.491Z,5.50
2022-10-17T20:01:54.472Z,4.90
2022-10-17T20:05:17.190Z,5.40
2022-10-17T20:08:20.708Z,4.60
2022-10-17T20:11:27.099Z,4.80
2022-10-17T20:14:29.851Z,5.20
2022-10-17T20:17:35.887Z,71.07
2022-10-17T20:20:38.943Z,75.87
2022-10-17T20:23:43.282Z,78.60
2022-10-17T20:26:47.816Z,16.50
2022-10-17T20:29:50.585Z,11.97
2022-10-17T20:32:55.443Z,7.70
2022-10-17T20:35:59.582Z,14.17
2022-10-17T20:39:03.560Z,7.53
2022-10-17T20:42:09.468Z,40.03
2022-10-17T20:45:13.239Z,35.10
2022-10-17T20:48:17.463Z,13.80
2022-10-17T20:51:20.836Z,40.70
2022-10-17T20:54:23.832Z,23.10
2022-10-17T20:57:28.101Z,20.77
2022-10-17T21:00:31.531Z,11.17
2022-10-17T21:03:37.098Z,7.70
2022-10-17T21:06:41.636Z,6.30
2022-10-17T21:09:45.478Z,8.90
2022-10-17T21:12:53.885Z,8.03
2022-10-17T21:15:57.644Z,9.57
2022-10-17T21:19:00.967Z,11.77
2022-10-17T21:22:04.000Z,6.03
2022-10-17T21:25:07.735Z,6.00
2022-10-17T21:28:11.906Z,5.47
2022-10-17T21:31:17.872Z,5.30
2022-10-17T21:34:22.318Z,5.60
2022-10-17T21:37:25.045Z,5.50
2022-10-17T21:40:28.105Z,5.23
2022-10-17T21:43:33.462Z,5.00
2022-10-17T21:46:36.310Z,5.00
2022-10-17T21:49:39.065Z,4.93
2022-10-17T21:52:41.889Z,5.10
2022-10-17T21:55:44.668Z,5.00
2022-10-17T21:58:49.528Z,4.90
2022-10-17T22:01:52.361Z,4.97
2022-10-17T22:04:55.189Z,5.67
2022-10-17T22:07:58.908Z,4.83
2022-10-17T22:11:06.315Z,5.23
2022-10-17T22:14:13.902Z,5.20
2022-10-17T22:17:16.631Z,5.30
2022-10-17T22:20:19.388Z,5.10
2022-10-17T22:23:22.298Z,5.40
2022-10-17T22:26:25.580Z,5.17
2022-10-17T22:29:29.740Z,4.90
2022-10-17T22:32:32.585Z,5.27
2022-10-17T22:35:35.817Z,5.63
2022-10-17T22:38:38.587Z,5.47
2022-10-17T22:41:41.747Z,5.77
2022-10-17T22:44:46.860Z,4.80
2022-10-17T22:47:49.648Z,5.10
2022-10-17T22:50:53.575Z,5.13
2022-10-17T22:53:56.310Z,5.20
2022-10-17T22:56:59.384Z,5.27
2022-10-17T23:00:03.804Z,5.37
2022-10-17T23:03:06.802Z,5.33
2022-10-17T23:06:10.493Z,5.33
2022-10-17T23:09:13.665Z,5.50
2022-10-17T23:12:16.636Z,5.20
2022-10-17T23:15:20.745Z,5.77
2022-10-17T23:18:24.872Z,5.13
2022-10-17T23:21:27.616Z,5.00
2022-10-17T23:24:31.057Z,5.13
2022-10-17T23:27:35.778Z,5.43
2022-10-17T23:30:40.349Z,5.00
2022-10-17T23:33:45.254Z,5.40
2022-10-17T23:36:48.149Z,5.47
2022-10-17T23:39:50.880Z,5.80
2022-10-17T23:42:53.717Z,6.40
2022-10-17T23:45:57.817Z,6.30
2022-10-17T23:49:06.303Z,6.17
2022-10-17T23:52:09.369Z,6.33
2022-10-17T23:55:12.327Z,7.00
2022-10-17T23:58:15.115Z,7.33
